createdAt,value
2022-10-19T00:01:15.931Z,99326.00
2022-10-19T00:03:46.191Z,99325.03
2022-10-19T00:06:25.044Z,99323.09
2022-10-19T00:09:07.595Z,99311.84
2022-10-19T00:11:39.616Z,99319.81
2022-10-19T00:14:11.159Z,99317.44
2022-10-19T00:16:38.935Z,99311.72
2022-10-19T00:19:14.939Z,99321.91
2022-10-19T00:21:42.660Z,99319.31
2022-10-19T00:24:10.707Z,99309.44
2022-10-19T00:26:38.205Z,99311.38
2022-10-19T00:29:06.773Z,99316.84
2022-10-19T00:31:34.566Z,99304.72
2022-10-19T00:34:01.895Z,99302.84
2022-10-19T00:36:36.714Z,99310.94
2022-10-19T00:39:07.115Z,99305.72
2022-10-19T00:41:37.048Z,99311.78
2022-10-19T00:44:26.912Z,99300.19
2022-10-19T00:46:59.764Z,99299.19
2022-10-19T00:49:33.704Z,99299.72
2022-10-19T00:52:12.609Z,99303.00
2022-10-19T00:54:43.151Z,99302.19
2022-10-19T00:57:11.906Z,99298.63
2022-10-19T00:59:42.549Z,99293.03
2022-10-19T01:02:10.328Z,99298.78
2022-10-19T01:04:44.587Z,99296.41
2022-10-19T01:07:12.754Z,99296.41
2022-10-19T01:09:40.160Z,99295.13
2022-10-19T01:12:17.867Z,99295.50
2022-10-19T01:15:15.018Z,99293.47
2022-10-19T01:18:02.483Z,99294.66
2022-10-19T01:20:41.887Z,99284.19
2022-10-19T01:23:24.130Z,99300.06
2022-10-19T01:26:08.932Z,99294.59
2022-10-19T01:29:04.058Z,99298.97
2022-10-19T01:32:02.564Z,99295.69
2022-10-19T01:34:57.659Z,99302.28
2022-10-19T01:37:40.783Z,99292.47
2022-10-19T01:40:25.586Z,99298.78
2022-10-19T01:43:42.436Z,99302.78
2022-10-19T01:49:54.212Z,99299.09
2022-10-19T01:52:25.619Z,99307.88
2022-10-19T01:55:00.361Z,99304.72
2022-10-19T01:57:35.018Z,99298.56
2022-10-19T02:00:08.095Z,99307.44
2022-10-19T02:02:47.387Z,99301.13
2022-10-19T02:05:18.483Z,99304.84
2022-10-19T02:07:53.138Z,99301.31
2022-10-19T02:10:21.770Z,99309.16
2022-10-19T02:12:50.498Z,99306.69
2022-10-19T02:15:22.544Z,99301.25
2022-10-19T02:17:56.900Z,99303.06
2022-10-19T02:20:24.755Z,99305.91
2022-10-19T02:22:52.217Z,99312.91
2022-10-19T02:25:20.274Z,99298.69
2022-10-19T02:27:47.963Z,99310.00
2022-10-19T02:30:19.379Z,99301.41
2022-10-19T02:32:46.865Z,99303.19
2022-10-19T02:35:15.063Z,99305.66
2022-10-19T02:37:43.209Z,99302.78
2022-10-19T02:40:11.719Z,99307.88
2022-10-19T02:42:44.359Z,99294.75
2022-10-19T02:45:23.746Z,99305.84
2022-10-19T02:47:59.961Z,99294.78
2022-10-19T02:50:27.942Z,99295.88
2022-10-19T02:52:55.453Z,99305.03
2022-10-19T02:55:22.903Z,99298.16
2022-10-19T02:57:50.367Z,99298.00
2022-10-19T03:00:18.107Z,99296.06
2022-10-19T03:02:45.548Z,99296.19
2022-10-19T03:05:12.986Z,99293.69
2022-10-19T03:07:41.434Z,99296.28
2022-10-19T03:10:09.437Z,99296.75
2022-10-19T03:12:36.790Z,99293.59
2022-10-19T03:15:05.196Z,99294.94
2022-10-19T03:17:32.981Z,99293.69
2022-10-19T03:20:00.701Z,99290.25
2022-10-19T03:22:28.118Z,99284.97
2022-10-19T03:24:55.537Z,99282.38
2022-10-19T03:27:22.963Z,99283.34
2022-10-19T03:29:50.436Z,99236.66
2022-10-19T03:32:17.851Z,99231.03
2022-10-19T03:34:45.411Z,99229.25
2022-10-19T03:37:15.103Z,99236.19
2022-10-19T03:39:42.543Z,99238.41
2022-10-19T03:42:09.977Z,99238.63
2022-10-19T03:44:37.465Z,99233.00
2022-10-19T03:47:04.978Z,99236.38
2022-10-19T03:49:34.624Z,99241.03
2022-10-19T03:52:04.485Z,99235.34
2022-10-19T03:54:31.983Z,99231.38
2022-10-19T03:56:59.419Z,99237.56
2022-10-19T03:59:26.926Z,99239.69
2022-10-19T04:01:54.355Z,99240.91
2022-10-19T04:04:21.837Z,99241.28
2022-10-19T04:06:50.888Z,99250.81
2022-10-19T04:09:21.948Z,99242.03
2022-10-19T04:11:50.295Z,99253.03
2022-10-19T04:14:31.863Z,99247.38
2022-10-19T04:17:02.332Z,99248.63
2022-10-19T04:19:29.925Z,99257.00
2022-10-19T04:21:57.814Z,99246.63
2022-10-19T04:24:25.334Z,99252.06
2022-10-19T04:26:56.093Z,99247.56
2022-10-19T04:29:29.516Z,99245.63
2022-10-19T04:31:58.793Z,99237.78
2022-10-19T04:34:26.226Z,99239.81
2022-10-19T04:36:53.968Z,99238.69
2022-10-19T04:39:21.440Z,99243.16
2022-10-19T04:41:48.864Z,99243.03
2022-10-19T04:44:16.409Z,99245.78
2022-10-19T04:46:43.841Z,99256.59
2022-10-19T04:49:11.619Z,99249.38
2022-10-19T04:51:40.632Z,99248.78
2022-10-19T04:54:08.141Z,99246.03
2022-10-19T04:56:35.655Z,99240.63
2022-10-19T04:59:03.267Z,99245.66
2022-10-19T05:01:31.656Z,99241.22
2022-10-19T05:04:01.673Z,99245.34
2022-10-19T05:06:31.697Z,99246.00
2022-10-19T05:09:00.054Z,99256.88
2022-10-19T05:11:28.307Z,99257.47
2022-10-19T05:13:58.491Z,99258.75
2022-10-19T05:16:26.216Z,99256.16
2022-10-19T05:18:56.758Z,99257.94
2022-10-19T05:21:27.106Z,99260.78
2022-10-19T05:23:57.255Z,99258.06
2022-10-19T05:26:27.332Z,99255.44
2022-10-19T05:29:01.660Z,99252.75
2022-10-19T05:31:32.796Z,99260.81
2022-10-19T05:34:00.875Z,99267.41
2022-10-19T05:36:34.503Z,99266.66
2022-10-19T05:39:12.072Z,99255.28
2022-10-19T05:41:39.616Z,99263.44
2022-10-19T05:44:07.196Z,99260.56
2022-10-19T05:46:34.959Z,99268.44
2022-10-19T05:49:02.555Z,99262.31
2022-10-19T05:51:30.017Z,99261.97
2022-10-19T05:53:57.760Z,99265.41
2022-10-19T05:56:29.703Z,99256.59
2022-10-19T05:58:59.766Z,99264.91
2022-10-19T06:01:29.425Z,99262.75
2022-10-19T06:03:59.467Z,99263.44
2022-10-19T06:06:28.490Z,99268.59
2022-10-19T06:08:58.999Z,99268.53
2022-10-19T06:11:30.711Z,99279.41
2022-10-19T06:13:59.884Z,99278.56
2022-10-19T06:16:29.527Z,99273.84
2022-10-19T06:18:58.184Z,99271.84
2022-10-19T06:21:29.964Z,99272.78
2022-10-19T06:24:01.044Z,99286.06
2022-10-19T06:26:30.297Z,99287.47
2022-10-19T06:29:00.685Z,99287.38
2022-10-19T06:31:34.649Z,99290.75
2022-10-19T06:34:02.400Z,99287.81
2022-10-19T06:36:32.111Z,99284.91
2022-10-19T06:39:01.712Z,99284.94
2022-10-19T06:41:31.356Z,99283.69
2022-10-19T06:44:12.801Z,99288.03
2022-10-19T06:46:40.247Z,99271.75
2022-10-19T06:49:07.700Z,99277.22
2022-10-19T06:51:35.107Z,99272.69
2022-10-19T06:54:02.526Z,99273.16
2022-10-19T06:56:30.001Z,99279.59
2022-10-19T06:58:58.433Z,99272.38
2022-10-19T07:01:26.115Z,99267.78
2022-10-19T07:03:54.153Z,99268.94
2022-10-19T07:06:22.271Z,99255.63
2022-10-19T07:08:49.831Z,99257.03
2022-10-19T07:11:20.383Z,99250.38
2022-10-19T07:13:48.390Z,99242.03
2022-10-19T07:16:20.899Z,99247.31
2022-10-19T07:18:51.887Z,99240.00
2022-10-19T07:21:22.241Z,99250.88
2022-10-19T07:23:50.654Z,99260.00
2022-10-19T07:26:30.547Z,99245.41
2022-10-19T07:28:58.335Z,99238.41
2022-10-19T07:31:28.954Z,99243.13
2022-10-19T07:33:59.912Z,99241.88
2022-10-19T07:36:30.698Z,99241.47
2022-10-19T07:38:58.854Z,99231.31
2022-10-19T07:41:27.462Z,99249.84
2022-10-19T07:43:55.369Z,99246.25
2022-10-19T07:46:29.298Z,99242.53
2022-10-19T07:48:56.806Z,99254.25
2022-10-19T07:51:25.057Z,99238.78
2022-10-19T07:53:53.036Z,99245.19
2022-10-19T07:56:24.182Z,99248.06
2022-10-19T07:58:54.998Z,99228.69
2022-10-19T08:01:26.300Z,99236.59
2022-10-19T08:06:43.092Z,99237.44
2022-10-19T08:09:15.586Z,99245.00
2022-10-19T08:11:50.484Z,99225.50
2022-10-19T08:14:17.925Z,99242.59
2022-10-19T08:16:45.465Z,99231.25
2022-10-19T08:19:16.089Z,99229.13
2022-10-19T08:21:46.626Z,99221.47
2022-10-19T08:24:16.948Z,99228.69
2022-10-19T08:26:44.986Z,99222.63
2022-10-19T08:29:20.879Z,99220.41
2022-10-19T08:31:49.546Z,99215.22
2022-10-19T08:34:17.586Z,99205.16
2022-10-19T08:36:45.544Z,99210.53
2022-10-19T08:39:13.783Z,99207.66
2022-10-19T08:41:41.280Z,99211.59
2022-10-19T08:44:48.609Z,99204.59
2022-10-19T08:47:43.183Z,99200.34
2022-10-19T08:50:25.472Z,99217.09
2022-10-19T08:53:05.692Z,99213.22
2022-10-19T08:56:05.503Z,99198.44
2022-10-19T08:59:09.904Z,99205.31
2022-10-19T09:01:57.032Z,99206.84
2022-10-19T09:04:38.341Z,99202.31
2022-10-19T09:07:29.327Z,99198.53
2022-10-19T09:10:14.796Z,99202.22
2022-10-19T09:12:53.896Z,99198.66
2022-10-19T09:15:48.600Z,99204.69
2022-10-19T09:18:32.527Z,99206.38
2022-10-19T09:21:16.213Z,99192.59
2022-10-19T09:24:26.899Z,99194.88
2022-10-19T09:26:59.450Z,99205.84
2022-10-19T09:29:43.193Z,99195.69
2022-10-19T09:32:19.608Z,99194.09
2022-10-19T09:34:54.500Z,99192.78
2022-10-19T09:37:26.526Z,99202.63
2022-10-19T09:39:56.156Z,99203.75
2022-10-19T09:42:30.319Z,99194.78
2022-10-19T09:45:02.467Z,99197.84
2022-10-19T09:47:39.869Z,99198.63
2022-10-19T09:50:22.090Z,99194.75
2022-10-19T09:53:04.143Z,99190.09
2022-10-19T09:55:37.953Z,99200.50
2022-10-19T09:58:14.524Z,99191.03
2022-10-19T10:00:50.725Z,99195.47
2022-10-19T10:03:29.066Z,99184.78
2022-10-19T10:06:03.331Z,99178.66
2022-10-19T10:08:36.304Z,99175.34
2022-10-19T10:11:12.881Z,99173.09
2022-10-19T10:13:52.968Z,99177.03
2022-10-19T10:16:30.307Z,99169.03
2022-10-19T10:19:07.188Z,99167.00
2022-10-19T10:21:48.143Z,99160.25
2022-10-19T10:24:16.749Z,99156.66
2022-10-19T10:26:51.788Z,99159.19
2022-10-19T10:29:32.483Z,99145.84
2022-10-19T10:32:18.891Z,99168.44
2022-10-19T10:35:01.863Z,99154.91
2022-10-19T10:37:45.762Z,99159.69
2022-10-19T10:40:31.547Z,99150.88
2022-10-19T10:43:22.660Z,99140.03
2022-10-19T10:45:53.811Z,99128.16
2022-10-19T10:48:31.898Z,99129.78
2022-10-19T10:51:01.643Z,99142.38
2022-10-19T10:53:40.567Z,99133.53
2022-10-19T10:56:28.466Z,99130.56
2022-10-19T10:59:30.527Z,99138.03
2022-10-19T11:02:38.080Z,99118.19
2022-10-19T11:05:28.659Z,99122.53
2022-10-19T11:08:43.528Z,99117.63
2022-10-19T11:11:30.515Z,99127.13
2022-10-19T11:14:20.568Z,99106.97
2022-10-19T11:16:53.055Z,99110.63
2022-10-19T11:19:32.223Z,99116.38
2022-10-19T11:22:39.536Z,99122.91
2022-10-19T11:25:38.331Z,99121.72
2022-10-19T11:28:30.640Z,99115.59
2022-10-19T11:31:33.326Z,99119.13
2022-10-19T11:34:23.631Z,99111.16
2022-10-19T11:37:20.839Z,99105.44
2022-10-19T11:40:12.161Z,99119.38
2022-10-19T11:43:12.983Z,99119.84
2022-10-19T11:46:01.968Z,99111.59
2022-10-19T11:48:50.646Z,99119.19
2022-10-19T11:51:41.392Z,99112.91
2022-10-19T11:54:42.699Z,99117.75
2022-10-19T11:57:20.531Z,99107.56
2022-10-19T12:00:14.291Z,99112.78
2022-10-19T12:02:54.698Z,99105.34
2022-10-19T12:06:14.433Z,99110.16
2022-10-19T12:09:00.943Z,99116.91
2022-10-19T12:11:51.691Z,99111.22
2022-10-19T12:14:28.200Z,99120.03
2022-10-19T12:17:06.499Z,99125.13
2022-10-19T12:19:41.994Z,99130.47
2022-10-19T12:22:19.648Z,99122.59
2022-10-19T12:24:48.631Z,99139.06
2022-10-19T12:27:24.504Z,99131.63
2022-10-19T12:29:53.298Z,99131.66
2022-10-19T12:32:24.987Z,99128.31
2022-10-19T12:35:17.272Z,99133.63
2022-10-19T12:38:03.534Z,99136.91
2022-10-19T12:40:52.156Z,99138.88
2022-10-19T12:43:55.733Z,99133.59
2022-10-19T12:46:34.787Z,99132.84
2022-10-19T12:49:26.844Z,99137.34
2022-10-19T12:52:00.044Z,99131.38
2022-10-19T12:54:32.255Z,99143.25
2022-10-19T12:57:03.339Z,99122.03
2022-10-19T12:59:34.994Z,99138.56
2022-10-19T13:02:24.512Z,99142.47
2022-10-19T13:04:54.303Z,99146.78
2022-10-19T13:07:22.043Z,99144.31
2022-10-19T13:09:49.818Z,99140.13
2022-10-19T13:12:21.817Z,99142.72
2022-10-19T13:15:04.715Z,99145.91
2022-10-19T13:17:36.539Z,99140.78
2022-10-19T13:20:18.761Z,99142.97
2022-10-19T13:23:10.127Z,99143.50
2022-10-19T13:25:42.539Z,99146.25
2022-10-19T13:28:10.050Z,99137.72
2022-10-19T13:30:43.404Z,99147.13
2022-10-19T13:33:25.852Z,99145.72
2022-10-19T13:35:59.092Z,99144.63
2022-10-19T13:38:29.297Z,99146.41
2022-10-19T13:41:27.227Z,99138.13
2022-10-19T13:44:14.381Z,99152.75
2022-10-19T13:47:08.540Z,99144.38
2022-10-19T13:49:59.835Z,99142.97
2022-10-19T13:52:54.952Z,99141.84
2022-10-19T13:55:51.706Z,99138.53
2022-10-19T13:58:37.699Z,99134.66
2022-10-19T14:01:29.116Z,99133.78
2022-10-19T14:04:26.479Z,99129.84
2022-10-19T14:07:04.995Z,99137.78
2022-10-19T14:10:07.945Z,99130.03
2022-10-19T14:12:41.487Z,99125.09
2022-10-19T14:15:31.702Z,99136.66
2022-10-19T14:18:02.365Z,99135.94
2022-10-19T14:20:38.403Z,99126.00
2022-10-19T14:23:36.805Z,99124.91
2022-10-19T14:26:15.273Z,99119.63
2022-10-19T14:28:43.368Z,99116.25
2022-10-19T14:31:18.522Z,99123.56
2022-10-19T14:33:51.456Z,99117.06
2022-10-19T14:36:28.032Z,99128.25
2022-10-19T14:38:57.623Z,99117.91
2022-10-19T14:41:27.913Z,99118.53
2022-10-19T14:43:58.031Z,99121.19
2022-10-19T14:46:34.174Z,99126.66
2022-10-19T14:49:05.718Z,99130.91
2022-10-19T14:51:54.333Z,99131.53
2022-10-19T14:54:30.736Z,99128.69
2022-10-19T14:57:17.505Z,99129.09
2022-10-19T14:59:52.930Z,99128.31
2022-10-19T15:02:27.983Z,99122.81
2022-10-19T15:05:00.675Z,99129.34
2022-10-19T15:07:42.699Z,99136.25
2022-10-19T15:10:31.241Z,99134.38
2022-10-19T15:13:06.191Z,99133.56
2022-10-19T15:15:35.767Z,99132.53
2022-10-19T15:18:06.626Z,99142.84
2022-10-19T15:20:49.110Z,99132.69
2022-10-19T15:23:41.553Z,99136.72
2022-10-19T15:26:29.221Z,99137.50
2022-10-19T15:29:22.335Z,99141.94
2022-10-19T15:31:50.548Z,99149.19
2022-10-19T15:34:28.003Z,99143.47
2022-10-19T15:37:01.480Z,99142.81
2022-10-19T15:39:42.075Z,99146.34
2022-10-19T15:42:36.809Z,99153.34
2022-10-19T15:45:37.944Z,99162.75
2022-10-19T15:48:11.182Z,99161.91
2022-10-19T15:50:48.459Z,99154.78
2022-10-19T15:53:16.877Z,99163.03
2022-10-19T15:55:44.510Z,99162.66
2022-10-19T15:58:13.926Z,99161.53
2022-10-19T16:00:42.556Z,99161.84
2022-10-19T16:03:10.027Z,99166.88
2022-10-19T16:05:37.901Z,99175.69
2022-10-19T16:08:08.963Z,99173.44
2022-10-19T16:10:39.197Z,99172.78
2022-10-19T16:13:06.670Z,99179.00
2022-10-19T16:15:34.229Z,99178.25
2022-10-19T16:18:01.851Z,99180.09
2022-10-19T16:20:30.202Z,99178.00
2022-10-19T16:22:58.583Z,99182.19
2022-10-19T16:25:26.190Z,99184.28
2022-10-19T16:27:53.796Z,99193.38
2022-10-19T16:30:21.373Z,99203.03
2022-10-19T16:32:49.712Z,99199.78
2022-10-19T16:35:17.207Z,99210.19
2022-10-19T16:37:45.404Z,99207.94
2022-10-19T16:40:12.888Z,99206.69
2022-10-19T16:42:40.449Z,99216.72
2022-10-19T16:45:09.199Z,99218.28
2022-10-19T16:47:36.689Z,99228.63
2022-10-19T16:50:06.477Z,99222.56
2022-10-19T16:52:34.515Z,99220.00
2022-10-19T16:55:02.568Z,99212.78
2022-10-19T16:57:30.103Z,99219.47
2022-10-19T16:59:57.568Z,99228.28
2022-10-19T17:02:25.141Z,99228.06
2022-10-19T17:04:52.651Z,99230.69
2022-10-19T17:07:20.115Z,99246.41
2022-10-19T17:09:49.773Z,99247.03
2022-10-19T17:12:19.839Z,99251.19
2022-10-19T17:14:47.284Z,99254.16
2022-10-19T17:17:17.111Z,99255.34
2022-10-19T17:19:44.555Z,99253.81
2022-10-19T17:22:12.042Z,99255.09
2022-10-19T17:24:39.984Z,99258.53
2022-10-19T17:27:07.769Z,99252.97
2022-10-19T17:29:35.566Z,99263.47
2022-10-19T17:32:03.086Z,99259.13
2022-10-19T17:34:30.521Z,99262.09
2022-10-19T17:36:58.343Z,99264.91
2022-10-19T17:39:29.054Z,99265.00
2022-10-19T17:42:01.877Z,99260.22
2022-10-19T17:44:31.360Z,99261.03
2022-10-19T17:47:00.814Z,99258.19
2022-10-19T17:49:29.992Z,99264.66
2022-10-19T17:51:58.232Z,99266.34
2022-10-19T17:54:25.866Z,99263.56
2022-10-19T17:56:53.379Z,99260.44
2022-10-19T17:59:30.252Z,99261.69
2022-10-19T18:02:04.127Z,99262.56
2022-10-19T18:04:31.903Z,99262.00
2022-10-19T18:06:59.387Z,99270.78
2022-10-19T18:09:26.806Z,99271.59
2022-10-19T18:11:54.322Z,99267.91
2022-10-19T18:14:22.747Z,99270.09
2022-10-19T18:16:51.969Z,99272.13
2022-10-19T18:19:19.455Z,99277.53
2022-10-19T18:21:49.069Z,99277.38
2022-10-19T18:24:20.158Z,99276.16
2022-10-19T18:26:50.843Z,99280.88
2022-10-19T18:29:24.259Z,99277.44
2022-10-19T18:31:52.885Z,99281.44
2022-10-19T18:34:26.127Z,99287.81
2022-10-19T18:36:54.686Z,99292.69
2022-10-19T18:39:23.061Z,99294.56
2022-10-19T18:41:54.568Z,99307.16
2022-10-19T18:44:27.218Z,99303.72
2022-10-19T18:46:57.449Z,99312.47
2022-10-19T18:49:25.581Z,99311.56
2022-10-19T18:51:55.426Z,99319.16
2022-10-19T18:54:26.510Z,99313.00
2022-10-19T18:56:55.340Z,99321.66
2022-10-19T18:59:23.400Z,99315.06
2022-10-19T19:01:51.128Z,99325.81
2022-10-19T19:04:18.662Z,99330.56
2022-10-19T19:06:46.197Z,99318.22
2022-10-19T19:09:14.149Z,99334.00
2022-10-19T19:11:42.083Z,99331.75
2022-10-19T19:14:20.940Z,99342.22
2022-10-19T19:16:48.692Z,99341.97
2022-10-19T19:19:18.867Z,99340.28
2022-10-19T19:21:47.353Z,99338.16
2022-10-19T19:24:18.974Z,99344.88
2022-10-19T19:26:53.236Z,99350.56
2022-10-19T19:29:22.311Z,99345.72
2022-10-19T19:31:50.805Z,99352.03
2022-10-19T19:34:18.427Z,99356.19
2022-10-19T19:36:49.214Z,99355.56
2022-10-19T19:39:20.491Z,99364.22
2022-10-19T19:41:49.293Z,99374.16
2022-10-19T19:44:18.226Z,99381.56
2022-10-19T19:46:45.984Z,99386.16
2022-10-19T19:49:14.485Z,99382.63
2022-10-19T19:51:42.697Z,99391.84
2022-10-19T19:54:11.452Z,99389.84
2022-10-19T19:56:40.095Z,99384.44
2022-10-19T19:59:08.999Z,99397.31
2022-10-19T20:01:38.214Z,99390.75
2022-10-19T20:04:06.845Z,99390.59
2022-10-19T20:06:36.907Z,99390.06
2022-10-19T20:09:06.767Z,99392.25
2022-10-19T20:11:36.214Z,99386.53
2022-10-19T20:14:07.300Z,99388.34
2022-10-19T20:16:34.848Z,99394.22
2022-10-19T20:19:13.513Z,99392.56
2022-10-19T20:21:41.981Z,99396.31
2022-10-19T20:24:10.062Z,99386.09
2022-10-19T20:26:37.866Z,99394.94
2022-10-19T20:29:06.005Z,99399.75
2022-10-19T20:31:39.431Z,99391.75
2022-10-19T20:34:13.953Z,99392.16
2022-10-19T20:36:42.218Z,99408.00
2022-10-19T20:39:10.239Z,99420.50
2022-10-19T20:41:37.779Z,99417.91
2022-10-19T20:44:05.406Z,99416.69
2022-10-19T20:46:32.887Z,99414.25
2022-10-19T20:49:02.074Z,99408.31
2022-10-19T20:51:36.841Z,99418.59
2022-10-19T20:54:08.096Z,99419.00
2022-10-19T20:56:38.616Z,99424.66
2022-10-19T20:59:10.763Z,99418.09
2022-10-19T21:01:40.320Z,99422.25
2022-10-19T21:04:11.050Z,99433.03
2022-10-19T21:06:45.829Z,99428.47
2022-10-19T21:09:20.319Z,99441.28
2022-10-19T21:11:50.497Z,99440.66
2022-10-19T21:14:28.181Z,99446.25
2022-10-19T21:17:00.362Z,99451.69
2022-10-19T21:19:30.839Z,99445.88
2022-10-19T21:22:02.237Z,99445.38
2022-10-19T21:24:36.381Z,99447.63
2022-10-19T21:27:08.967Z,99442.03
2022-10-19T21:29:37.707Z,99442.06
2022-10-19T21:32:05.523Z,99456.84
2022-10-19T21:34:33.717Z,99450.47
2022-10-19T21:37:01.169Z,99446.41
2022-10-19T21:39:28.691Z,99448.03
2022-10-19T21:41:56.279Z,99454.91
2022-10-19T21:44:23.864Z,99456.06
2022-10-19T21:46:51.375Z,99464.91
2022-10-19T21:49:19.227Z,99469.97
2022-10-19T21:51:53.855Z,99457.06
2022-10-19T21:54:24.995Z,99459.34
2022-10-19T21:56:53.392Z,99468.03
2022-10-19T21:59:20.912Z,99463.09
2022-10-19T22:01:48.474Z,99469.50
2022-10-19T22:04:18.623Z,99466.72
2022-10-19T22:06:47.036Z,99457.56
2022-10-19T22:09:17.682Z,99456.09
2022-10-19T22:11:45.347Z,99461.13
2022-10-19T22:14:15.207Z,99457.53
2022-10-19T22:16:42.801Z,99460.16
2022-10-19T22:19:10.617Z,99468.31
2022-10-19T22:24:11.471Z,99468.78
2022-10-19T22:26:43.314Z,99474.13
2022-10-19T22:29:11.195Z,99476.72
2022-10-19T22:31:39.400Z,99466.06
2022-10-19T22:34:13.315Z,99456.47
2022-10-19T22:36:41.048Z,99469.47
2022-10-19T22:39:09.227Z,99467.41
2022-10-19T22:41:36.854Z,99467.13
2022-10-19T22:44:04.567Z,99463.81
2022-10-19T22:46:33.918Z,99468.56
2022-10-19T22:49:01.771Z,99468.34
2022-10-19T22:51:29.441Z,99471.63
2022-10-19T22:53:56.987Z,99467.16
2022-10-19T22:56:24.458Z,99476.19
2022-10-19T22:58:51.972Z,99482.28
2022-10-19T23:01:19.639Z,99485.22
2022-10-19T23:03:47.262Z,99474.19
2022-10-19T23:06:15.572Z,99477.94
2022-10-19T23:08:44.270Z,99476.97
2022-10-19T23:11:12.570Z,99480.56
2022-10-19T23:13:41.146Z,99475.75
2022-10-19T23:16:09.467Z,99474.72
2022-10-19T23:18:40.711Z,99480.63
2022-10-19T23:21:13.923Z,99477.94
2022-10-19T23:23:41.658Z,99472.88
2022-10-19T23:26:17.298Z,99470.88
2022-10-19T23:28:48.236Z,99477.88
2022-10-19T23:31:24.628Z,99482.94
2022-10-19T23:33:53.821Z,99474.59
2022-10-19T23:36:27.725Z,99468.44
2022-10-19T23:38:57.543Z,99465.94
2022-10-19T23:41:25.571Z,99465.56
2022-10-19T23:43:53.088Z,99472.59
2022-10-19T23:46:21.016Z,99474.53
2022-10-19T23:48:48.449Z,99467.84
2022-10-19T23:51:19.800Z,99471.69
2022-10-19T23:53:49.724Z,99469.38
2022-10-19T23:56:23.910Z,99465.09
2022-10-19T23:58:52.523Z,99476.41
